Time;durP1;ratioP1;P1;durP2;ratioP2;P2;SDS_P1;SDS_P2;PMS_P1;PMS_P2;Temp;Humidity;BMP_temperature;BMP_pressure;BME280_temperature;BME280_humidity;BME280_pressure;Samples;Min_cycle;Max_cycle;Signal;HPM_P1;HPM_P2
2023/07/03 00:01:30;;;;;;;2.93;2.37;;;;;14.60;95818.00;;;;5033121;28;20200;-57
2023/07/03 00:03:57;;;;;;;4.93;2.73;;;;;14.50;95817.00;;;;5033317;28;20196;-57
2023/07/03 00:06:25;;;;;;;2.83;2.30;;;;;14.50;95819.00;;;;5033022;28;20348;-57
2023/07/03 00:08:52;;;;;;;1.60;1.50;;;;;14.40;95818.00;;;;5033160;28;20271;-60
2023/07/03 00:11:20;;;;;;;3.07;2.77;;;;;14.30;95825.00;;;;5033115;28;20691;-57
2023/07/03 00:13:47;;;;;;;3.07;2.50;;;;;14.30;95829.00;;;;5032872;28;20196;-57
2023/07/03 00:16:15;;;;;;;1.80;1.70;;;;;14.20;95816.00;;;;5032862;28;20272;-57
2023/07/03 00:18:44;;;;;;;4.77;2.13;;;;;14.10;95814.00;;;;5032889;28;20204;-56
2023/07/03 00:21:11;;;;;;;1.77;1.53;;;;;14.20;95814.00;;;;5032774;28;20209;-56
2023/07/03 00:23:38;;;;;;;2.60;2.40;;;;;14.30;95816.00;;;;5032860;28;20189;-56
2023/07/03 00:26:06;;;;;;;2.87;2.63;;;;;14.40;95818.00;;;;5032823;28;20197;-56
2023/07/03 00:28:33;;;;;;;2.43;2.23;;;;;14.30;95809.00;;;;5033383;28;20207;-56
2023/07/03 00:31:01;;;;;;;1.83;1.73;;;;;14.30;95807.00;;;;5032882;28;20224;-57
2023/07/03 00:33:28;;;;;;;2.10;2.00;;;;;14.40;95814.00;;;;5032737;28;20272;-57
2023/07/03 00:35:57;;;;;;;2.40;2.20;;;;;14.50;95811.00;;;;5032663;28;20193;-57
2023/07/03 00:38:24;;;;;;;2.87;2.23;;;;;14.50;95810.00;;;;5036602;28;20201;-57
2023/07/03 00:40:52;;;;;;;3.77;2.23;;;;;14.70;95811.00;;;;5036737;28;20220;-57
2023/07/03 00:43:19;;;;;;;4.70;3.37;;;;;14.60;95804.00;;;;5036776;28;20194;-57
2023/07/03 00:45:47;;;;;;;1.30;1.30;;;;;14.70;95802.00;;;;5036975;28;20197;-57
2023/07/03 00:48:14;;;;;;;5.97;2.87;;;;;14.70;95806.00;;;;5036730;28;20266;-57
2023/07/03 00:50:42;;;;;;;4.17;2.37;;;;;14.70;95801.00;;;;5036563;28;20216;-57
2023/07/03 00:53:11;;;;;;;3.40;2.00;;;;;14.80;95807.00;;;;5036633;28;20196;-57
2023/07/03 00:55:39;;;;;;;1.93;1.83;;;;;14.70;95803.00;;;;5036758;28;20188;-57
2023/07/03 00:58:06;;;;;;;1.87;1.70;;;;;14.80;95798.00;;;;5037065;28;20192;-57
2023/07/03 01:00:40;;;;;;;3.80;2.30;;;;;14.60;95801.00;;;;5036442;28;20243;-56
2023/07/03 01:03:13;;;;;;;2.23;2.13;;;;;14.60;95803.00;;;;5035138;28;20607;-56
2023/07/03 01:05:46;;;;;;;1.47;1.37;;;;;14.70;95801.00;;;;5035565;28;20173;-57
2023/07/03 01:08:16;;;;;;;3.13;2.40;;;;;14.80;95805.00;;;;5037044;28;20200;-57
2023/07/03 01:10:44;;;;;;;2.07;1.97;;;;;14.90;95797.00;;;;5036189;28;20239;-57
2023/07/03 01:13:16;;;;;;;2.63;2.43;;;;;14.90;95791.00;;;;5036233;28;20189;-57
2023/07/03 01:15:45;;;;;;;5.00;2.27;;;;;14.90;95796.00;;;;5036543;28;20195;-57
2023/07/03 01:18:14;;;;;;;6.73;2.03;;;;;15.00;95791.00;;;;5036167;28;20193;-56
2023/07/03 01:20:46;;;;;;;1.97;1.87;;;;;15.00;95791.00;;;;5036036;28;20262;-56
2023/07/03 01:23:22;;;;;;;2.70;2.40;;;;;15.00;95790.00;;;;5036360;28;20185;-57
2023/07/03 01:25:52;;;;;;;1.70;1.60;;;;;15.00;95794.00;;;;5036587;28;20254;-57
2023/07/03 01:28:22;;;;;;;1.57;1.53;;;;;15.00;95784.00;;;;5035975;28;20193;-57
2023/07/03 01:30:52;;;;;;;2.47;1.67;;;;;15.10;95786.00;;;;5035754;28;20217;-57
2023/07/03 01:33:25;;;;;;;1.23;1.20;;;;;15.00;95788.00;;;;5036227;28;20185;-57
2023/07/03 01:35:54;;;;;;;2.93;2.73;;;;;15.10;95780.00;;;;5036066;28;20304;-57
2023/07/03 01:38:24;;;;;;;1.93;1.43;;;;;15.10;95781.00;;;;5035743;28;20197;-57
2023/07/03 01:40:54;;;;;;;3.77;2.43;;;;;15.10;95784.00;;;;5035692;28;20212;-56
2023/07/03 01:43:23;;;;;;;1.93;1.83;;;;;15.20;95780.00;;;;5035733;28;20181;-56
2023/07/03 01:45:50;;;;;;;4.00;2.23;;;;;15.10;95785.00;;;;5035665;28;20193;-57
2023/07/03 01:48:18;;;;;;;3.03;1.87;;;;;15.10;95790.00;;;;5035566;28;20201;-58
2023/07/03 01:50:48;;;;;;;7.50;2.93;;;;;15.00;95787.00;;;;5035454;28;20556;-58
2023/07/03 01:53:22;;;;;;;1.47;1.33;;;;;14.90;95789.00;;;;5035669;28;20287;-57
2023/07/03 01:55:54;;;;;;;1.80;1.70;;;;;14.90;95791.00;;;;5035543;28;20675;-57
2023/07/03 01:58:30;;;;;;;1.20;1.20;;;;;14.90;95782.00;;;;5034159;28;20291;-56
2023/07/03 02:01:01;;;;;;;5.43;3.13;;;;;14.90;95783.00;;;;5061336;22;20236;-61
2023/07/03 02:03:34;;;;;;;3.17;2.93;;;;;14.90;95776.00;;;;5055300;28;20192;-60
2023/07/03 02:06:06;;;;;;;2.87;2.57;;;;;14.90;95774.00;;;;5055329;28;20188;-61
2023/07/03 02:08:33;;;;;;;1.53;1.43;;;;;14.90;95773.00;;;;5055462;28;20188;-61
2023/07/03 02:11:02;;;;;;;2.77;2.40;;;;;15.00;95767.00;;;;5053683;28;20634;-61
2023/07/03 02:13:30;;;;;;;10.67;2.20;;;;;15.00;95771.00;;;;5055042;28;20250;-61
2023/07/03 02:15:57;;;;;;;3.17;2.97;;;;;15.00;95775.00;;;;5053774;28;20647;-62
2023/07/03 02:18:25;;;;;;;2.57;2.37;;;;;14.90;95776.00;;;;5055256;28;20200;-60
2023/07/03 02:20:52;;;;;;;2.47;2.27;;;;;14.90;95776.00;;;;5055088;28;20212;-61
2023/07/03 02:23:19;;;;;;;4.47;2.73;;;;;14.80;95780.00;;;;5054939;28;20742;-61
2023/07/03 02:25:47;;;;;;;2.30;2.07;;;;;14.80;95779.00;;;;5054846;28;20196;-61
2023/07/03 02:28:16;;;;;;;3.70;2.03;;;;;14.90;95784.00;;;;5054843;28;20279;-61
2023/07/03 02:30:43;;;;;;;1.90;1.80;;;;;14.70;95778.00;;;;5054969;28;20709;-61
2023/07/03 02:33:11;;;;;;;2.77;2.33;;;;;14.50;95778.00;;;;5054641;28;20219;-61
2023/07/03 02:35:41;;;;;;;1.97;1.87;;;;;14.40;95775.00;;;;5054907;28;20219;-61
2023/07/03 02:38:08;;;;;;;1.60;1.50;;;;;14.50;95778.00;;;;5053345;28;20218;-61
2023/07/03 02:40:36;;;;;;;2.50;2.30;;;;;14.50;95775.00;;;;5054485;28;20212;-61
2023/07/03 02:43:04;;;;;;;1.03;1.03;;;;;14.30;95771.00;;;;5054549;28;20192;-61
2023/07/03 02:45:37;;;;;;;2.17;2.07;;;;;14.30;95772.00;;;;5054509;28;20673;-61
2023/07/03 02:48:05;;;;;;;1.77;1.67;;;;;14.30;95762.00;;;;5054673;28;20176;-62
2023/07/03 02:50:32;;;;;;;2.20;2.10;;;;;14.30;95772.00;;;;5054305;28;20223;-61
2023/07/03 02:53:00;;;;;;;2.43;2.23;;;;;14.60;95767.00;;;;5054292;28;20308;-61
2023/07/03 02:55:27;;;;;;;1.97;1.87;;;;;14.60;95763.00;;;;5054302;28;20279;-61
2023/07/03 02:57:55;;;;;;;3.07;2.27;;;;;14.60;95768.00;;;;5054823;28;20541;-60
2023/07/03 03:00:23;;;;;;;1.73;1.63;;;;;14.80;95763.00;;;;5054018;28;20643;-60
2023/07/03 03:02:51;;;;;;;2.07;1.47;;;;;14.80;95767.00;;;;5054126;28;20192;-61
2023/07/03 03:05:19;;;;;;;2.07;1.30;;;;;14.80;95756.00;;;;5054102;28;20196;-61
2023/07/03 03:07:46;;;;;;;2.93;2.37;;;;;15.10;95763.00;;;;5054075;28;20192;-60
2023/07/03 03:10:14;;;;;;;1.10;1.10;;;;;15.00;95761.00;;;;5053975;28;20212;-61
2023/07/03 03:12:41;;;;;;;1.37;1.33;;;;;15.10;95762.00;;;;5052624;28;20250;-60
2023/07/03 03:15:09;;;;;;;1.30;1.27;;;;;15.10;95757.00;;;;5054166;28;20200;-61
2023/07/03 03:17:37;;;;;;;1.87;1.77;;;;;15.20;95755.00;;;;5054363;28;20241;-62
2023/07/03 03:20:08;;;;;;;3.60;2.70;;;;;15.30;95759.00;;;;5053756;28;20262;-61
2023/07/03 03:22:35;;;;;;;1.73;1.50;;;;;15.20;95756.00;;;;5053784;28;20185;-61
2023/07/03 03:25:03;;;;;;;1.73;1.63;;;;;15.20;95752.00;;;;5054005;28;20195;-61
2023/07/03 03:27:31;;;;;;;1.73;1.63;;;;;15.40;95756.00;;;;5053696;28;20223;-60
2023/07/03 03:29:58;;;;;;;3.00;2.70;;;;;15.20;95761.00;;;;5053801;28;20220;-61
2023/07/03 03:32:26;;;;;;;2.53;2.43;;;;;15.20;95759.00;;;;5053692;28;20220;-61
2023/07/03 03:34:53;;;;;;;3.43;3.13;;;;;15.30;95764.00;;;;5053476;28;20199;-61
2023/07/03 03:37:22;;;;;;;1.73;1.63;;;;;15.30;95763.00;;;;5053460;28;20199;-62
2023/07/03 03:39:49;;;;;;;2.67;2.23;;;;;15.40;95762.00;;;;5053415;28;20216;-63
2023/07/03 03:42:17;;;;;;;1.70;1.50;;;;;15.30;95764.00;;;;5053418;28;20192;-64
2023/07/03 03:44:44;;;;;;;2.40;2.20;;;;;15.50;95749.00;;;;5052057;28;20200;-61
2023/07/03 03:47:12;;;;;;;3.00;2.80;;;;;15.70;95754.00;;;;5053781;28;20618;-62
2023/07/03 03:49:40;;;;;;;5.17;3.13;;;;;15.70;95756.00;;;;5053480;28;20212;-61
2023/07/03 03:52:08;;;;;;;3.00;2.73;;;;;15.70;95753.00;;;;5053137;28;20302;-61
2023/07/03 03:54:36;;;;;;;1.80;1.70;;;;;15.70;95750.00;;;;5053910;28;20211;-61
2023/07/03 03:57:05;;;;;;;8.13;1.90;;;;;15.80;95755.00;;;;5051833;28;20689;-61
2023/07/03 03:59:32;;;;;;;4.30;2.00;;;;;15.90;95756.00;;;;5052943;28;20195;-61
2023/07/03 04:02:00;;;;;;;2.87;2.67;;;;;16.00;95773.00;;;;5053206;28;20180;-61
2023/07/03 04:04:28;;;;;;;4.43;2.90;;;;;15.90;95771.00;;;;5052990;28;20274;-61
2023/07/03 04:06:55;;;;;;;1.53;1.43;;;;;15.90;95765.00;;;;5052957;28;20288;-61
2023/07/03 04:09:22;;;;;;;2.87;1.77;;;;;15.90;95765.00;;;;5052801;28;20675;-61
2023/07/03 04:11:51;;;;;;;1.23;1.23;;;;;16.00;95766.00;;;;5050599;28;20200;-61
2023/07/03 04:14:19;;;;;;;2.80;2.23;;;;;16.10;95765.00;;;;5053070;28;20559;-62
2023/07/03 04:16:47;;;;;;;2.43;2.23;;;;;15.90;95770.00;;;;5052770;28;20204;-62
2023/07/03 04:19:18;;;;;;;2.40;1.77;;;;;16.00;95768.00;;;;5053284;28;20230;-62
2023/07/03 04:21:45;;;;;;;3.87;2.47;;;;;16.00;95765.00;;;;5052957;28;20185;-62
2023/07/03 04:24:13;;;;;;;0.80;0.80;;;;;15.90;95765.00;;;;5052705;28;20196;-62
2023/07/03 04:26:41;;;;;;;1.73;1.60;;;;;16.10;95766.00;;;;5052695;28;20196;-62
2023/07/03 04:29:10;;;;;;;1.27;1.27;;;;;16.10;95775.00;;;;5052932;28;20184;-62
2023/07/03 04:31:39;;;;;;;5.60;3.03;;;;;16.20;95777.00;;;;5052756;28;20290;-62
2023/07/03 04:34:06;;;;;;;1.03;1.03;;;;;16.20;95788.00;;;;5052702;28;20306;-62
2023/07/03 04:36:34;;;;;;;2.87;2.67;;;;;16.00;95781.00;;;;5052756;28;20192;-62
2023/07/03 04:39:02;;;;;;;2.90;2.60;;;;;16.00;95779.00;;;;5052555;28;20254;-62
2023/07/03 04:41:29;;;;;;;2.97;2.40;;;;;16.20;95781.00;;;;5052466;28;20572;-62
2023/07/03 04:44:00;;;;;;;1.70;1.60;;;;;16.10;95783.00;;;;5052774;28;20192;-62
2023/07/03 04:46:29;;;;;;;1.70;1.60;;;;;16.00;95787.00;;;;5052565;28;20211;-62
2023/07/03 04:49:00;;;;;;;2.93;2.30;;;;;16.20;95750.00;;;;5052584;28;20204;-62
2023/07/03 04:51:30;;;;;;;1.10;1.00;;;;;16.10;95786.00;;;;5052322;28;20695;-62
2023/07/03 04:54:01;;;;;;;3.30;2.17;;;;;16.00;95776.00;;;;5052974;28;20321;-62
2023/07/03 04:56:29;;;;;;;1.40;1.30;;;;;16.10;95776.00;;;;5052456;28;20187;-62
2023/07/03 04:58:59;;;;;;;3.43;1.37;;;;;16.20;95780.00;;;;5052484;28;20196;-62
2023/07/03 05:01:26;;;;;;;1.07;1.07;;;;;16.30;95778.00;;;;5052171;28;20223;-62
2023/07/03 05:03:55;;;;;;;2.20;1.40;;;;;16.30;95780.00;;;;5052183;28;20184;-62
2023/07/03 05:06:22;;;;;;;2.20;2.10;;;;;16.30;95787.00;;;;5052547;28;20193;-60
2023/07/03 05:08:50;;;;;;;1.93;1.83;;;;;16.40;95786.00;;;;5052190;28;20211;-60
2023/07/03 05:11:17;;;;;;;3.50;1.80;;;;;16.20;95788.00;;;;5052076;28;20294;-61
2023/07/03 05:13:45;;;;;;;2.10;1.90;;;;;16.40;95790.00;;;;5052220;28;20258;-61
2023/07/03 05:16:14;;;;;;;1.33;1.23;;;;;16.40;95789.00;;;;5052391;28;20196;-61
2023/07/03 05:18:41;;;;;;;2.00;1.77;;;;;16.60;95793.00;;;;5052162;28;20232;-60
2023/07/03 05:21:10;;;;;;;2.30;2.07;;;;;16.60;95792.00;;;;5052033;28;20212;-61
2023/07/03 05:23:38;;;;;;;3.93;1.57;;;;;16.50;95796.00;;;;5054609;28;20550;-61
2023/07/03 05:26:05;;;;;;;9.00;2.70;;;;;16.60;95795.00;;;;5054536;28;20200;-61
2023/07/03 05:28:33;;;;;;;1.50;1.40;;;;;16.50;95794.00;;;;5056043;28;20196;-60
2023/07/03 05:31:01;;;;;;;2.43;2.30;;;;;16.60;95793.00;;;;5055961;28;20208;-61
2023/07/03 05:33:29;;;;;;;8.37;2.17;;;;;16.70;95794.00;;;;5055554;28;20279;-61
2023/07/03 05:36:01;;;;;;;1.77;1.67;;;;;16.80;95792.00;;;;5056238;28;20267;-61
2023/07/03 05:38:30;;;;;;;1.67;1.57;;;;;16.60;95801.00;;;;5055756;28;20187;-61
2023/07/03 05:40:58;;;;;;;2.30;2.10;;;;;16.70;95800.00;;;;5055540;28;20578;-61
2023/07/03 05:43:26;;;;;;;2.10;1.93;;;;;16.80;95803.00;;;;5054306;28;20659;-60
2023/07/03 05:45:54;;;;;;;3.50;1.97;;;;;16.70;95795.00;;;;5055430;28;20224;-62
2023/07/03 05:48:21;;;;;;;3.33;2.43;;;;;16.90;95802.00;;;;5055562;28;20192;-62
2023/07/03 05:50:49;;;;;;;5.97;3.20;;;;;16.90;95799.00;;;;5055234;28;20713;-61
2023/07/03 05:53:16;;;;;;;6.17;1.77;;;;;17.20;95805.00;;;;5055439;28;20211;-61
2023/07/03 05:55:53;;;;;;;5.67;1.93;;;;;17.50;95804.00;;;;5055288;28;20193;-61
2023/07/03 05:58:20;;;;;;;1.53;1.43;;;;;17.60;95807.00;;;;5055767;28;20180;-61
2023/07/03 06:00:48;;;;;;;1.87;1.77;;;;;17.50;95803.00;;;;5055126;28;20599;-61
2023/07/03 06:03:16;;;;;;;16.33;2.23;;;;;17.10;95811.00;;;;5053759;28;20207;-61
2023/07/03 06:05:44;;;;;;;1.83;1.73;;;;;17.30;95811.00;;;;5055359;28;20193;-61
2023/07/03 06:08:11;;;;;;;2.30;2.10;;;;;17.50;95806.00;;;;5055167;28;20199;-61
2023/07/03 06:10:39;;;;;;;1.70;1.60;;;;;17.40;95815.00;;;;5055318;28;20277;-61
2023/07/03 06:13:08;;;;;;;2.37;2.13;;;;;17.70;95818.00;;;;5054818;28;20227;-61
2023/07/03 06:15:35;;;;;;;2.40;2.20;;;;;17.60;95819.00;;;;5054761;28;20192;-61
2023/07/03 06:18:05;;;;;;;2.67;1.87;;;;;17.80;95821.00;;;;5054739;28;20192;-59
2023/07/03 06:20:39;;;;;;;2.70;2.43;;;;;18.00;95823.00;;;;5053411;28;20223;-60
2023/07/03 06:23:07;;;;;;;1.10;1.10;;;;;17.80;95836.00;;;;5054954;28;20184;-60
2023/07/03 06:25:34;;;;;;;1.10;1.10;;;;;17.90;95833.00;;;;5054607;28;20591;-60
2023/07/03 06:28:02;;;;;;;1.30;1.27;;;;;18.00;95838.00;;;;5053315;28;20200;-60
2023/07/03 06:30:31;;;;;;;1.00;1.00;;;;;18.20;95825.00;;;;5054792;28;20227;-60
2023/07/03 06:32:58;;;;;;;1.93;1.33;;;;;17.90;95838.00;;;;5054447;28;20220;-60
2023/07/03 06:35:26;;;;;;;1.20;1.20;;;;;17.80;95835.00;;;;5053960;28;20200;-60
2023/07/03 06:37:55;;;;;;;1.23;1.23;;;;;17.90;95847.00;;;;5053099;28;20200;-60
2023/07/03 06:40:23;;;;;;;1.63;1.53;;;;;18.00;95838.00;;;;5054313;28;20215;-60
2023/07/03 06:42:52;;;;;;;3.87;2.40;;;;;18.00;95837.00;;;;5054369;28;20188;-60
2023/07/03 06:45:19;;;;;;;3.37;2.27;;;;;18.10;95833.00;;;;5053034;28;20195;-60
2023/07/03 06:47:48;;;;;;;1.63;1.53;;;;;18.10;95835.00;;;;5054289;28;20192;-60
2023/07/03 06:50:15;;;;;;;3.10;1.90;;;;;18.20;95852.00;;;;5054111;28;20207;-60
2023/07/03 06:52:48;;;;;;;3.30;2.40;;;;;18.10;95847.00;;;;5054566;28;20196;-60
2023/07/03 06:55:15;;;;;;;1.60;1.50;;;;;18.00;95843.00;;;;5054151;28;20662;-60
2023/07/03 06:57:43;;;;;;;2.03;1.93;;;;;17.70;95850.00;;;;5054197;28;20188;-60
2023/07/03 07:00:11;;;;;;;3.97;2.17;;;;;17.90;95848.00;;;;5053898;28;20227;-60
2023/07/03 07:02:39;;;;;;;1.10;1.10;;;;;17.60;95850.00;;;;5052655;28;20200;-59
2023/07/03 07:05:08;;;;;;;1.00;1.00;;;;;17.60;95857.00;;;;5053926;28;20201;-60
2023/07/03 07:07:36;;;;;;;2.13;1.67;;;;;17.70;95859.00;;;;5054167;28;20195;-60
2023/07/03 07:10:03;;;;;;;7.43;1.67;;;;;17.70;95848.00;;;;5053650;28;20220;-61
2023/07/03 07:12:31;;;;;;;1.47;1.37;;;;;17.90;95854.00;;;;5053961;28;20249;-61
2023/07/03 07:14:58;;;;;;;4.20;2.20;;;;;17.90;95853.00;;;;5053740;28;20216;-61
2023/07/03 07:17:26;;;;;;;2.00;1.90;;;;;18.00;95859.00;;;;5053679;28;20195;-61
2023/07/03 07:19:53;;;;;;;3.60;1.73;;;;;18.30;95853.00;;;;5053533;28;20216;-61
2023/07/03 07:22:22;;;;;;;1.90;1.80;;;;;18.60;95848.00;;;;5053652;28;20192;-62
2023/07/03 07:24:49;;;;;;;2.07;1.97;;;;;18.60;95855.00;;;;5053824;28;20192;-62
2023/07/03 07:27:16;;;;;;;2.00;1.87;;;;;18.60;95851.00;;;;5052176;28;20196;-61
2023/07/03 07:29:44;;;;;;;2.47;1.97;;;;;18.40;95851.00;;;;5053372;28;20212;-61
2023/07/03 07:32:11;;;;;;;8.83;1.87;;;;;18.50;95844.00;;;;5053688;28;20203;-62
2023/07/03 07:34:39;;;;;;;1.23;1.23;;;;;18.60;95852.00;;;;5053805;28;20230;-62
2023/07/03 07:37:06;;;;;;;1.53;1.50;;;;;18.50;95845.00;;;;5053612;28;20195;-61
2023/07/03 07:39:41;;;;;;;2.23;2.03;;;;;19.00;95838.00;;;;5051976;28;20200;-61
2023/07/03 07:42:09;;;;;;;1.73;1.67;;;;;19.20;95842.00;;;;5053642;28;20184;-62
2023/07/03 07:44:36;;;;;;;16.03;2.80;;;;;19.40;95849.00;;;;5052025;28;20295;-62
2023/07/03 07:47:04;;;;;;;0.90;0.90;;;;;19.40;95849.00;;;;5053067;28;20188;-61
2023/07/03 07:49:31;;;;;;;2.20;1.97;;;;;19.20;95859.00;;;;5053122;28;20192;-61
2023/07/03 07:51:59;;;;;;;3.03;2.00;;;;;19.10;95865.00;;;;5053068;28;20203;-61
2023/07/03 07:54:26;;;;;;;1.83;1.57;;;;;18.40;95882.00;;;;5051618;28;20310;-61
2023/07/03 07:56:56;;;;;;;3.63;1.07;;;;;17.90;95871.00;;;;5053045;28;20188;-61
2023/07/03 07:59:24;;;;;;;1.33;1.23;;;;;18.20;95859.00;;;;5053088;28;20179;-61
2023/07/03 08:01:51;;;;;;;2.57;2.37;;;;;18.60;95854.00;;;;5053219;22;20240;-56
2023/07/03 08:04:19;;;;;;;2.70;1.50;;;;;18.30;95845.00;;;;5031813;28;20311;-56
2023/07/03 08:06:46;;;;;;;2.20;0.97;;;;;18.30;95857.00;;;;5033114;28;20276;-56
2023/07/03 08:09:14;;;;;;;0.90;0.90;;;;;18.30;95869.00;;;;5033167;28;20559;-57
2023/07/03 08:11:44;;;;;;;3.50;1.97;;;;;18.00;95863.00;;;;5033070;28;20331;-56
2023/07/03 08:14:13;;;;;;;1.43;1.33;;;;;18.40;95855.00;;;;5031648;28;20223;-56
2023/07/03 08:16:40;;;;;;;1.47;1.37;;;;;18.30;95855.00;;;;5033252;28;20197;-56
2023/07/03 08:19:08;;;;;;;2.47;2.33;;;;;18.40;95858.00;;;;5033227;28;20552;-56
2023/07/03 08:21:35;;;;;;;1.50;1.40;;;;;18.50;95858.00;;;;5032937;28;20698;-57
2023/07/03 08:24:03;;;;;;;0.97;0.93;;;;;19.00;95864.00;;;;5033191;28;20192;-57
2023/07/03 08:26:31;;;;;;;2.70;1.30;;;;;18.90;95863.00;;;;5032276;28;20346;-57
2023/07/03 08:28:59;;;;;;;1.30;1.30;;;;;19.20;95881.00;;;;5033100;28;20567;-58
2023/07/03 08:31:27;;;;;;;2.37;1.73;;;;;19.10;95861.00;;;;5032741;28;20579;-57
2023/07/03 08:33:55;;;;;;;5.13;1.63;;;;;19.00;95850.00;;;;5032653;28;20633;-57
2023/07/03 08:36:23;;;;;;;2.83;1.67;;;;;19.20;95869.00;;;;5032773;28;20238;-57
2023/07/03 08:38:51;;;;;;;1.83;1.67;;;;;19.10;95862.00;;;;5033034;28;20496;-56
2023/07/03 08:41:19;;;;;;;1.67;1.57;;;;;18.90;95866.00;;;;5032684;28;20224;-57
2023/07/03 08:43:51;;;;;;;2.23;1.87;;;;;19.00;95873.00;;;;5031518;28;20283;-56
2023/07/03 08:46:21;;;;;;;4.57;2.23;;;;;18.80;95868.00;;;;5032649;28;20666;-56
2023/07/03 08:48:52;;;;;;;2.73;1.90;;;;;18.70;95860.00;;;;5031791;28;20185;-57
2023/07/03 08:51:23;;;;;;;1.57;1.47;;;;;19.30;95854.00;;;;5032630;28;20216;-56
2023/07/03 08:53:55;;;;;;;4.93;1.40;;;;;19.50;95868.00;;;;5032839;28;20690;-56
2023/07/03 08:56:25;;;;;;;1.73;1.63;;;;;19.50;95868.00;;;;5032886;28;20200;-56
2023/07/03 08:58:53;;;;;;;4.17;2.03;;;;;19.70;95867.00;;;;5036162;28;20220;-56
2023/07/03 09:01:28;;;;;;;4.07;2.30;;;;;19.90;95863.00;;;;5036342;28;20228;-56
2023/07/03 09:04:08;;;;;;;2.83;1.70;;;;;19.90;95861.00;;;;5036718;28;20184;-56
2023/07/03 09:06:43;;;;;;;2.40;2.20;;;;;19.30;95873.00;;;;5036810;28;20655;-56
2023/07/03 09:09:17;;;;;;;2.63;1.27;;;;;19.30;95862.00;;;;5036574;28;20180;-56
2023/07/03 09:11:51;;;;;;;0.53;0.53;;;;;19.30;95860.00;;;;5036345;28;20223;-56
2023/07/03 09:14:24;;;;;;;1.33;1.23;;;;;19.40;95868.00;;;;5036352;28;20205;-56
2023/07/03 09:16:52;;;;;;;1.13;1.10;;;;;19.70;95862.00;;;;5036373;28;20173;-56
2023/07/03 09:19:25;;;;;;;1.53;1.17;;;;;19.60;95868.00;;;;5036297;28;20197;-56
2023/07/03 09:22:00;;;;;;;1.20;1.10;;;;;19.50;95857.00;;;;5036185;28;20221;-56
2023/07/03 09:24:30;;;;;;;0.67;0.67;;;;;19.60;95865.00;;;;5036474;28;20525;-58
2023/07/03 09:27:06;;;;;;;3.07;1.50;;;;;19.90;95868.00;;;;5036671;28;20223;-57
2023/07/03 09:29:37;;;;;;;0.77;0.77;;;;;19.70;95871.00;;;;5036481;28;20188;-56
2023/07/03 09:32:05;;;;;;;0.50;0.50;;;;;19.80;95892.00;;;;5036288;28;20212;-57
2023/07/03 09:35:02;;;;;;;0.80;0.80;;;;;20.10;95878.00;;;;5034696;28;20216;-57
2023/07/03 09:37:30;;;;;;;4.37;1.47;;;;;20.20;95874.00;;;;5036475;28;20192;-56
2023/07/03 09:39:57;;;;;;;2.30;2.10;;;;;19.90;95883.00;;;;5036451;28;20189;-56
2023/07/03 09:42:26;;;;;;;0.63;0.63;;;;;19.90;95856.00;;;;5035917;28;20197;-56
2023/07/03 09:44:54;;;;;;;1.57;1.47;;;;;20.20;95850.00;;;;5035816;28;20676;-56
2023/07/03 09:47:25;;;;;;;1.53;1.43;;;;;19.90;95877.00;;;;5035824;28;20196;-56
2023/07/03 09:49:53;;;;;;;0.83;0.83;;;;;19.80;95866.00;;;;5036006;28;20272;-56
2023/07/03 09:52:23;;;;;;;0.83;0.83;;;;;19.80;95878.00;;;;5035674;28;20710;-56
2023/07/03 09:54:50;;;;;;;1.53;1.43;;;;;19.80;95867.00;;;;5035578;28;20216;-58
2023/07/03 09:57:25;;;;;;;1.03;1.03;;;;;20.20;95875.00;;;;5034337;28;20196;-56
2023/07/03 09:59:53;;;;;;;2.20;1.63;;;;;19.90;95868.00;;;;5036423;28;20627;-56
2023/07/03 10:02:22;;;;;;;1.20;1.20;;;;;20.10;95865.00;;;;5035295;28;20221;-56
2023/07/03 10:04:50;;;;;;;1.43;1.33;;;;;20.70;95886.00;;;;5035728;28;20193;-56
2023/07/03 10:07:18;;;;;;;5.70;1.43;;;;;20.40;95892.00;;;;5035473;28;20246;-56
2023/07/03 10:09:47;;;;;;;1.13;1.03;;;;;20.70;95892.00;;;;5034572;28;20204;-56
2023/07/03 10:12:24;;;;;;;1.27;1.17;;;;;20.20;95916.00;;;;5035295;28;20573;-56
2023/07/03 10:14:56;;;;;;;1.10;1.00;;;;;20.00;95904.00;;;;5035522;28;20663;-56
2023/07/03 10:17:29;;;;;;;0.70;0.70;;;;;20.00;95894.00;;;;5035489;28;20714;-57
2023/07/03 10:20:01;;;;;;;0.70;0.70;;;;;20.30;95896.00;;;;5035417;28;20520;-56
2023/07/03 10:22:29;;;;;;;2.33;1.27;;;;;20.20;95910.00;;;;5035666;28;20181;-56
2023/07/03 10:25:04;;;;;;;0.83;0.83;;;;;20.10;95915.00;;;;5035111;28;20193;-56
2023/07/03 10:27:34;;;;;;;1.03;1.03;;;;;20.10;95902.00;;;;5035343;28;20173;-56
2023/07/03 10:30:04;;;;;;;0.60;0.60;;;;;19.80;95917.00;;;;5034520;28;20181;-56
2023/07/03 10:32:35;;;;;;;0.73;0.73;;;;;20.00;95920.00;;;;5034960;28;20258;-56
2023/07/03 10:35:07;;;;;;;0.87;0.87;;;;;19.80;95930.00;;;;5035031;28;20291;-56
2023/07/03 10:37:43;;;;;;;1.30;1.20;;;;;19.60;95918.00;;;;5035221;28;20189;-56
2023/07/03 10:40:20;;;;;;;0.60;0.60;;;;;19.70;95933.00;;;;5034781;28;20185;-56
2023/07/03 10:42:52;;;;;;;2.73;1.63;;;;;19.60;95928.00;;;;5034881;28;20540;-56
2023/07/03 10:45:20;;;;;;;1.67;1.57;;;;;20.00;95925.00;;;;5035048;28;20616;-59
2023/07/03 10:47:53;;;;;;;0.80;0.80;;;;;19.80;95930.00;;;;5034905;28;20203;-56
2023/07/03 10:50:28;;;;;;;3.77;2.20;;;;;19.90;95917.00;;;;5034883;28;20571;-56
2023/07/03 10:53:02;;;;;;;2.13;1.00;;;;;20.00;95921.00;;;;5034764;28;20187;-56
2023/07/03 10:55:39;;;;;;;0.70;0.70;;;;;19.60;95928.00;;;;5035191;28;20605;-55
2023/07/03 10:58:12;;;;;;;1.43;1.33;;;;;19.50;95919.00;;;;5034502;28;20177;-56
2023/07/03 11:00:48;;;;;;;0.80;0.80;;;;;19.90;95920.00;;;;5034722;28;20227;-56
2023/07/03 11:03:26;;;;;;;4.03;1.77;;;;;19.70;95932.00;;;;5034454;28;20735;-56
2023/07/03 11:05:59;;;;;;;1.50;1.40;;;;;19.60;95930.00;;;;5034310;28;20183;-56
2023/07/03 11:08:32;;;;;;;1.17;1.07;;;;;19.70;95923.00;;;;5034533;28;20263;-56
2023/07/03 11:11:08;;;;;;;1.10;1.10;;;;;19.80;95919.00;;;;5034187;28;20220;-56
2023/07/03 11:13:48;;;;;;;0.93;0.93;;;;;20.00;95922.00;;;;5034244;28;20203;-56
2023/07/03 11:16:17;;;;;;;2.53;1.23;;;;;20.00;95926.00;;;;5032828;28;20662;-56
2023/07/03 11:18:57;;;;;;;1.57;1.47;;;;;20.20;95920.00;;;;5034625;28;20193;-56
2023/07/03 11:21:35;;;;;;;1.33;1.30;;;;;20.20;95935.00;;;;5033593;28;20220;-56
2023/07/03 11:24:13;;;;;;;0.67;0.67;;;;;20.00;95916.00;;;;5034243;28;20199;-56
2023/07/03 11:26:47;;;;;;;1.43;1.33;;;;;20.20;95935.00;;;;5033915;28;20215;-56
2023/07/03 11:29:15;;;;;;;0.80;0.80;;;;;20.60;95924.00;;;;5033849;28;20188;-56
2023/07/03 11:31:45;;;;;;;1.30;1.17;;;;;20.70;95928.00;;;;5033843;28;20212;-56
2023/07/03 11:34:15;;;;;;;1.57;1.47;;;;;20.80;95927.00;;;;5034011;28;20173;-56
2023/07/03 11:36:45;;;;;;;1.05;1.05;;;;;20.60;95922.00;;;;5034258;28;20181;-56
2023/07/03 11:39:19;;;;;;;2.30;1.47;;;;;20.50;95926.00;;;;5033659;28;20204;-56
2023/07/03 11:41:52;;;;;;;1.40;1.40;;;;;20.60;95931.00;;;;5034110;28;20299;-56
2023/07/03 11:44:28;;;;;;;4.70;1.57;;;;;20.90;95914.00;;;;5033862;28;20263;-56
2023/07/03 11:46:58;;;;;;;1.53;1.43;;;;;20.60;95919.00;;;;5033851;28;20287;-56
2023/07/03 11:49:30;;;;;;;1.80;1.70;;;;;20.60;95928.00;;;;5033470;28;20196;-56
2023/07/03 11:52:00;;;;;;;1.07;1.07;;;;;20.70;95924.00;;;;5033497;28;20219;-56
2023/07/03 11:54:31;;;;;;;1.40;1.33;;;;;20.80;95922.00;;;;5033676;28;20647;-56
2023/07/03 11:57:04;;;;;;;2.53;0.93;;;;;21.30;95919.00;;;;5033669;28;20181;-56
2023/07/03 11:59:37;;;;;;;11.63;1.47;;;;;21.60;95908.00;;;;5033297;28;20191;-55
2023/07/03 12:02:43;;;;;;;0.93;0.90;;;;;21.60;95924.00;;;;5033074;28;20259;-56
2023/07/03 12:05:11;;;;;;;0.88;0.88;;;;;21.50;95916.00;;;;5033401;28;20284;-56
2023/07/03 12:07:51;;;;;;;1.13;1.13;;;;;21.30;95904.00;;;;5033196;28;20189;-56
2023/07/03 12:10:39;;;;;;;0.60;0.60;;;;;21.40;95906.00;;;;5033291;28;20220;-56
2023/07/03 12:13:45;;;;;;;1.42;1.33;;;;;21.20;95919.00;;;;5033143;28;20193;-55
2023/07/03 12:16:16;;;;;;;3.70;2.25;;;;;20.80;95926.00;;;;5024209;28;20234;-55
2023/07/03 12:18:44;;;;;;;0.90;0.90;;;;;21.00;95894.00;;;;5031705;28;20672;-56
2023/07/03 12:21:13;;;;;;;0.77;0.77;;;;;21.80;95907.00;;;;5033168;28;20552;-56
2023/07/03 12:23:42;;;;;;;0.95;0.95;;;;;21.80;95917.00;;;;5032956;28;20269;-56
2023/07/03 12:26:11;;;;;;;0.63;0.63;;;;;21.60;95905.00;;;;5033193;28;20192;-56
2023/07/03 12:28:41;;;;;;;0.40;0.40;;;;;21.40;95921.00;;;;5032890;28;20268;-56
2023/07/03 12:31:18;;;;;;;1.25;1.15;;;;;21.00;95912.00;;;;5032901;28;20223;-56